Etusivu
METAR-TAF:

METAR-TAF

Lentoasemat :

Öljynporauslautta

P11-b, Alankomaat

Leveyspiiri: 52-21-36N, Pituuspiiri: 3-20-30E, korkeus merenpinnasta: 24 m

Tämänhetkinen sää

Tämä raportti tehtiin 10 minuuttia sitten, kello 10.25 UTC
Tuuli 12 kn idästä/koillisesta
Lämpötila 14°C
Kosteus 100%
Ilmanpaine 1014 hPa
Näkyvyys: 3900 m
Muutamia pilviä 100 ft:n korkeudessa
Hajonneita pilviä 200 ft:n korkeudessa
Hajonneita pilviä 300 ft:n korkeudessa
heikkoa sadetta

METAR: EHPG 081025Z AUTO 07012KT 3900 -RA FEW001 BKN002 BKN003 14/14 Q1014

Aika: 12:35 (10:35 UTC)


TAF: puuttuu

Säähavainnot ja -ennusteet yli 4000 lentoasemalta (METAR- ja TAF-raportit).

Käytössä olevat sääasemat on merkitty karttaan keltaisilla ja punaisilla pisteillä.

Aseta hiiri pisteen päälle nähdäksesi sääaseman nimen.

Klikkaa sitten nähdäksesi säähavainnot ja -ennusteet.

Kartan vaihtaminen: klikkaa mustalla rastilla varustettuja vihreitä pisteitä, niin voit zoomata sisään; viivalla varustettua vihreää pistettä, niin voit zoomata ulos tai vihreitä nuolia, niin pääset viereisille kartoille.


METAR-TAF: